createdAt,value
2023-05-11T00:01:38.925Z,8.33
2023-05-11T00:04:10.563Z,8.28
2023-05-11T00:06:41.914Z,8.24
2023-05-11T00:09:13.273Z,8.19
2023-05-11T00:11:44.398Z,8.14
2023-05-11T00:14:15.280Z,8.09
2023-05-11T00:16:46.266Z,8.04
2023-05-11T00:19:17.497Z,8.00
2023-05-11T00:21:48.298Z,7.97
2023-05-11T00:24:19.372Z,7.93
2023-05-11T00:26:50.594Z,7.88
2023-05-11T00:29:22.120Z,7.83
2023-05-11T00:31:53.574Z,7.79
2023-05-11T00:34:24.869Z,7.74
2023-05-11T00:36:57.324Z,7.70
2023-05-11T00:39:28.082Z,7.65
2023-05-11T00:41:59.108Z,7.61
2023-05-11T00:44:30.343Z,7.57
2023-05-11T00:47:01.534Z,7.52
2023-05-11T00:49:32.834Z,7.45
2023-05-11T00:52:04.194Z,7.39
2023-05-11T00:54:36.393Z,7.35
2023-05-11T00:57:07.247Z,7.31
2023-05-11T00:59:35.783Z,7.28
2023-05-11T01:02:07.260Z,7.24
2023-05-11T01:04:39.040Z,7.20
2023-05-11T01:07:23.343Z,7.17
2023-05-11T01:10:09.602Z,7.11
2023-05-11T01:13:07.720Z,7.05
2023-05-11T01:15:48.107Z,7.00
2023-05-11T01:18:31.123Z,6.94
2023-05-11T01:21:07.074Z,6.92
2023-05-11T01:24:14.195Z,6.89
2023-05-11T01:27:07.566Z,6.84
2023-05-11T01:29:48.022Z,6.80
2023-05-11T01:32:23.886Z,6.77
2023-05-11T01:35:21.141Z,6.73
2023-05-11T01:38:00.035Z,6.69
2023-05-11T01:40:35.349Z,6.66
2023-05-11T01:43:21.996Z,6.63
2023-05-11T01:45:55.999Z,6.60
2023-05-11T01:48:32.083Z,6.57
2023-05-11T01:51:03.195Z,6.53
2023-05-11T01:53:37.170Z,6.50
2023-05-11T01:56:10.096Z,6.46
2023-05-11T01:58:42.607Z,6.43
2023-05-11T02:01:16.520Z,6.41
2023-05-11T02:03:50.203Z,6.38
2023-05-11T02:06:24.209Z,6.37
2023-05-11T02:08:58.156Z,6.34
2023-05-11T02:11:31.225Z,6.32
2023-05-11T02:14:05.176Z,6.32
2023-05-11T02:16:36.834Z,6.31
2023-05-11T02:19:09.113Z,6.30
2023-05-11T02:21:43.544Z,6.29
2023-05-11T02:24:16.206Z,6.27
2023-05-11T02:26:47.550Z,6.25
2023-05-11T02:29:18.942Z,6.22
2023-05-11T02:32:00.730Z,6.22
2023-05-11T02:34:39.409Z,6.20
2023-05-11T02:37:15.486Z,6.18
2023-05-11T02:39:50.949Z,6.18
2023-05-11T02:42:24.071Z,6.17
2023-05-11T02:45:03.859Z,6.15
2023-05-11T02:47:43.768Z,6.14
2023-05-11T02:50:19.773Z,6.12
2023-05-11T02:52:51.420Z,6.12
2023-05-11T02:55:27.218Z,6.12
2023-05-11T02:57:59.166Z,6.12
2023-05-11T03:00:27.845Z,6.11
2023-05-11T03:02:59.790Z,6.09
2023-05-11T03:05:31.122Z,6.07
2023-05-11T03:08:02.385Z,6.05
2023-05-11T03:10:33.634Z,6.04
2023-05-11T03:13:06.455Z,6.05
2023-05-11T03:15:39.002Z,6.04
2023-05-11T03:18:11.825Z,6.02
2023-05-11T03:20:44.701Z,6.02
2023-05-11T03:23:17.769Z,6.01
2023-05-11T03:25:49.360Z,6.00
2023-05-11T03:28:23.022Z,5.99
2023-05-11T03:31:03.161Z,5.98
2023-05-11T03:33:35.494Z,5.95
2023-05-11T03:36:10.795Z,5.94
2023-05-11T03:38:42.883Z,5.93
2023-05-11T03:41:17.947Z,5.96
2023-05-11T03:43:52.895Z,5.99
2023-05-11T03:46:25.599Z,6.00
2023-05-11T03:48:57.744Z,6.02
2023-05-11T03:51:29.301Z,6.03
2023-05-11T03:54:00.765Z,6.07
2023-05-11T03:56:32.180Z,6.12
2023-05-11T03:59:04.534Z,6.18
2023-05-11T04:01:34.365Z,6.23
2023-05-11T04:04:07.246Z,6.30
2023-05-11T04:06:38.728Z,6.35
2023-05-11T04:09:37.273Z,6.39
2023-05-11T04:12:08.781Z,6.45
2023-05-11T04:14:40.216Z,6.52
2023-05-11T04:17:31.860Z,6.61
2023-05-11T04:20:03.143Z,6.71
2023-05-11T04:23:04.190Z,6.81
2023-05-11T04:26:04.592Z,6.95
2023-05-11T04:28:40.998Z,7.08
2023-05-11T04:31:11.976Z,7.19
2023-05-11T04:33:43.132Z,7.31
2023-05-11T04:36:15.704Z,7.43
2023-05-11T04:38:51.920Z,7.57
2023-05-11T04:41:26.880Z,7.74
2023-05-11T04:44:01.283Z,7.90
2023-05-11T04:46:33.777Z,8.06
2023-05-11T04:49:34.948Z,8.21
2023-05-11T04:52:29.692Z,8.43
2023-05-11T04:55:17.360Z,8.61
2023-05-11T04:57:55.128Z,8.78
2023-05-11T05:01:28.186Z,8.94
2023-05-11T05:04:20.306Z,9.10
2023-05-11T05:06:55.676Z,9.20
2023-05-11T05:09:27.785Z,9.29
2023-05-11T05:11:58.647Z,9.41
2023-05-11T05:14:29.841Z,9.54
2023-05-11T05:17:01.678Z,9.65
2023-05-11T05:19:34.884Z,9.73
2023-05-11T05:22:09.260Z,9.78
2023-05-11T05:24:47.484Z,9.88
2023-05-11T05:27:39.546Z,9.97
2023-05-11T05:30:14.123Z,10.09
2023-05-11T05:32:46.476Z,10.26
2023-05-11T05:35:17.837Z,10.43
2023-05-11T05:38:09.409Z,10.58
2023-05-11T05:40:41.801Z,10.78
2023-05-11T05:43:33.724Z,10.98
2023-05-11T05:46:06.611Z,11.23
2023-05-11T05:48:40.279Z,11.41
2023-05-11T05:51:09.813Z,11.52
2023-05-11T05:54:00.917Z,11.76
2023-05-11T05:56:32.653Z,12.05
2023-05-11T05:59:02.203Z,12.28
2023-05-11T06:01:33.664Z,12.41
2023-05-11T06:04:07.175Z,12.59
2023-05-11T06:06:38.256Z,12.64
2023-05-11T06:09:09.604Z,12.84
2023-05-11T06:11:52.091Z,13.13
2023-05-11T06:14:48.717Z,13.30
2023-05-11T06:17:20.532Z,13.54
2023-05-11T06:19:51.583Z,13.71
2023-05-11T06:22:28.989Z,13.95
2023-05-11T06:25:00.607Z,14.35
2023-05-11T06:27:34.104Z,14.69
2023-05-11T06:30:07.562Z,15.10
2023-05-11T06:32:40.176Z,15.52
2023-05-11T06:35:12.514Z,15.80
2023-05-11T06:37:43.927Z,15.80
2023-05-11T06:40:17.046Z,15.76
2023-05-11T06:42:48.231Z,15.91
2023-05-11T06:45:19.706Z,15.90
2023-05-11T06:47:51.489Z,16.11
2023-05-11T06:50:27.351Z,16.34
2023-05-11T06:52:59.695Z,16.50
2023-05-11T06:55:34.386Z,16.62
2023-05-11T06:58:05.583Z,16.62
2023-05-11T07:00:36.455Z,16.41
2023-05-11T07:03:07.924Z,16.61
2023-05-11T07:05:39.511Z,16.75
2023-05-11T07:08:14.219Z,16.93
2023-05-11T07:10:45.952Z,17.00
2023-05-11T07:13:17.125Z,17.18
2023-05-11T07:15:50.066Z,17.38
2023-05-11T07:18:24.358Z,17.75
2023-05-11T07:20:56.040Z,17.98
2023-05-11T07:23:34.765Z,18.20
2023-05-11T07:34:01.173Z,18.55
2023-05-11T07:36:33.173Z,18.78
2023-05-11T07:39:04.654Z,18.90
2023-05-11T07:41:36.573Z,19.19
2023-05-11T07:44:07.990Z,19.37
2023-05-11T07:50:58.741Z,18.96
2023-05-11T07:55:52.881Z,18.83
2023-05-11T07:58:24.788Z,18.90
2023-05-11T08:00:57.033Z,19.16
2023-05-11T08:04:06.540Z,19.22
2023-05-11T08:06:45.777Z,19.43
2023-05-11T08:09:20.571Z,19.26
2023-05-11T08:12:02.414Z,19.31
2023-05-11T08:14:36.796Z,19.42
2023-05-11T08:17:31.528Z,19.48
2023-05-11T08:20:25.245Z,19.51
2023-05-11T08:22:58.868Z,19.28
2023-05-11T08:25:31.256Z,18.81
2023-05-11T08:28:05.573Z,18.79
2023-05-11T08:30:40.169Z,18.49
2023-05-11T08:33:35.903Z,18.38
2023-05-11T08:36:07.858Z,18.54
2023-05-11T08:38:39.728Z,18.69
2023-05-11T08:41:15.029Z,18.98
2023-05-11T08:43:48.937Z,19.23
2023-05-11T08:46:27.312Z,19.49
2023-05-11T08:48:59.277Z,19.65
2023-05-11T08:51:30.897Z,19.39
2023-05-11T09:04:58.882Z,19.73
2023-05-11T09:07:31.587Z,19.82
2023-05-11T09:10:04.310Z,19.68
2023-05-11T09:12:36.549Z,19.78
2023-05-11T09:15:08.627Z,19.59
2023-05-11T09:17:39.575Z,19.56
2023-05-11T09:20:10.961Z,19.48
2023-05-11T09:22:48.887Z,19.24
2023-05-11T09:25:22.510Z,19.22
2023-05-11T09:27:54.015Z,19.22
2023-05-11T09:30:23.955Z,18.93
2023-05-11T09:33:02.962Z,18.99
2023-05-11T09:35:35.972Z,19.06
2023-05-11T09:38:14.456Z,19.01
2023-05-11T09:40:53.487Z,19.07
2023-05-11T09:43:30.964Z,19.11
2023-05-11T09:46:07.416Z,18.96
2023-05-11T09:48:40.852Z,19.01
2023-05-11T09:51:12.178Z,19.11
2023-05-11T09:53:46.490Z,19.06
2023-05-11T09:56:18.005Z,18.96
2023-05-11T09:58:55.270Z,18.95
2023-05-11T10:01:34.727Z,18.98
2023-05-11T10:04:22.003Z,18.87
2023-05-11T10:06:54.828Z,18.88
2023-05-11T10:09:29.159Z,18.95
2023-05-11T10:12:01.841Z,18.94
2023-05-11T10:14:34.164Z,18.96
2023-05-11T10:17:05.780Z,19.06
2023-05-11T10:19:37.529Z,19.41
2023-05-11T10:22:09.729Z,19.72
2023-05-11T10:24:42.359Z,19.60
2023-05-11T10:27:14.756Z,19.64
2023-05-11T10:29:47.971Z,19.68
2023-05-11T10:32:23.100Z,19.65
2023-05-11T10:34:59.395Z,19.59
2023-05-11T10:37:30.904Z,19.55
2023-05-11T10:40:07.362Z,19.59
2023-05-11T10:43:21.450Z,19.58
2023-05-11T10:45:56.734Z,19.68
2023-05-11T10:48:52.850Z,19.49
2023-05-11T10:51:42.177Z,19.40
2023-05-11T10:54:49.015Z,19.69
2023-05-11T10:57:51.134Z,19.69
2023-05-11T11:00:48.032Z,19.82
2023-05-11T11:03:21.802Z,19.52
2023-05-11T11:12:13.706Z,19.23
2023-05-11T11:15:02.264Z,19.24
2023-05-11T11:17:36.479Z,19.29
2023-05-11T11:20:09.767Z,19.35
2023-05-11T11:22:50.146Z,19.22
2023-05-11T11:25:55.709Z,19.21
2023-05-11T11:28:26.913Z,19.44
2023-05-11T11:31:32.664Z,19.57
2023-05-11T11:34:34.819Z,19.66
2023-05-11T11:37:08.869Z,19.53
2023-05-11T11:40:14.766Z,19.48
2023-05-11T11:42:47.837Z,19.28
2023-05-11T11:45:32.657Z,19.28
2023-05-11T11:48:14.407Z,19.12
2023-05-11T11:50:48.274Z,18.91
2023-05-11T11:53:44.922Z,18.79
2023-05-11T11:56:24.791Z,18.70
2023-05-11T11:59:20.748Z,18.65
2023-05-11T12:01:52.451Z,18.52
2023-05-11T12:04:51.354Z,18.27
2023-05-11T12:08:00.256Z,18.09
2023-05-11T12:10:33.987Z,17.86
2023-05-11T12:13:05.690Z,17.81
2023-05-11T12:15:37.011Z,17.84
2023-05-11T12:18:21.183Z,17.91
2023-05-11T12:20:52.487Z,17.90
2023-05-11T12:23:23.502Z,17.95
2023-05-11T12:26:07.231Z,18.07
2023-05-11T12:28:38.140Z,18.17
2023-05-11T12:31:09.226Z,18.14
2023-05-11T12:33:55.612Z,18.11
2023-05-11T12:36:26.932Z,18.05
2023-05-11T12:38:58.112Z,18.06
2023-05-11T12:41:29.126Z,18.16
2023-05-11T12:44:01.019Z,18.12
2023-05-11T12:46:33.771Z,18.05
2023-05-11T12:49:05.113Z,18.12
2023-05-11T12:52:10.646Z,18.24
2023-05-11T12:54:48.208Z,18.30
2023-05-11T12:57:31.475Z,18.36
2023-05-11T13:00:13.282Z,18.52
2023-05-11T13:02:56.614Z,18.60
2023-05-11T13:05:29.485Z,18.60
2023-05-11T13:08:04.760Z,18.52
2023-05-11T13:10:41.893Z,18.28
2023-05-11T13:13:30.404Z,18.13
2023-05-11T13:16:01.548Z,18.08
2023-05-11T13:18:32.593Z,18.19
2023-05-11T13:21:09.904Z,18.33
2023-05-11T13:23:41.387Z,18.26
2023-05-11T13:26:36.636Z,18.12
2023-05-11T13:29:11.144Z,17.96
2023-05-11T13:31:51.251Z,17.82
2023-05-11T13:34:22.401Z,17.59
2023-05-11T13:36:53.418Z,17.36
2023-05-11T13:39:24.661Z,17.27
2023-05-11T13:41:56.339Z,17.27
2023-05-11T13:44:27.483Z,17.26
2023-05-11T13:46:58.684Z,17.27
2023-05-11T13:49:29.810Z,17.29
2023-05-11T13:52:01.011Z,17.28
2023-05-11T13:54:33.141Z,17.20
2023-05-11T14:00:01.008Z,17.01
2023-05-11T14:02:32.140Z,17.04
2023-05-11T14:05:12.682Z,17.10
2023-05-11T14:07:48.353Z,16.97
2023-05-11T14:10:22.099Z,16.86
2023-05-11T14:12:53.563Z,16.77
2023-05-11T14:15:24.491Z,16.75
2023-05-11T14:17:55.858Z,16.74
2023-05-11T14:20:27.106Z,16.83
2023-05-11T14:22:58.819Z,16.88
2023-05-11T14:25:32.016Z,16.86
2023-05-11T14:28:03.149Z,16.75
2023-05-11T14:30:35.196Z,16.71
2023-05-11T14:33:06.252Z,16.68
2023-05-11T14:35:39.642Z,16.57
2023-05-11T14:38:10.887Z,16.53
2023-05-11T14:40:41.980Z,16.41
2023-05-11T14:43:14.890Z,16.37
2023-05-11T14:45:45.410Z,16.35
2023-05-11T14:56:54.166Z,16.07
2023-05-11T15:08:01.237Z,15.81
2023-05-11T15:23:03.393Z,15.55
2023-05-11T15:34:12.387Z,15.42
2023-05-11T15:45:00.515Z,15.50
2023-05-11T15:48:10.407Z,15.51
2023-05-11T15:55:00.257Z,15.33
2023-05-11T16:05:51.034Z,15.00
2023-05-11T16:09:06.682Z,14.95
2023-05-11T16:16:04.808Z,14.90
2023-05-11T16:19:09.580Z,14.85
2023-05-11T16:30:24.804Z,14.70
2023-05-11T16:33:46.576Z,14.63
2023-05-11T16:40:37.178Z,14.50
2023-05-11T16:43:10.685Z,14.47
2023-05-11T16:49:57.555Z,14.32
2023-05-11T16:56:46.487Z,14.18
2023-05-11T17:03:35.222Z,14.05
2023-05-11T17:06:50.614Z,14.01
2023-05-11T17:13:38.978Z,13.91
2023-05-11T17:28:49.645Z,13.61
2023-05-11T17:35:38.834Z,13.49
2023-05-11T17:42:26.893Z,13.38
2023-05-11T17:49:15.321Z,13.24
2023-05-11T18:00:17.684Z,13.06
2023-05-11T18:07:08.570Z,12.94
2023-05-11T18:10:18.563Z,12.91
2023-05-11T18:21:26.904Z,12.76
2023-05-11T18:36:57.849Z,12.68
2023-05-11T18:43:49.834Z,12.63
2023-05-11T18:46:43.424Z,12.60
2023-05-11T18:53:32.776Z,12.54
2023-05-11T19:08:22.203Z,12.44
2023-05-11T19:15:14.035Z,12.38
2023-05-11T19:30:19.149Z,12.38
2023-05-11T19:41:26.437Z,12.32
2023-05-11T19:48:21.796Z,12.27
2023-05-11T19:55:13.753Z,12.24
2023-05-11T20:03:08.022Z,12.18
2023-05-11T20:14:15.147Z,12.10
2023-05-11T20:21:04.742Z,12.05
2023-05-11T20:27:53.047Z,11.98
2023-05-11T20:43:26.568Z,11.78
2023-05-11T20:46:41.637Z,11.73
2023-05-11T20:53:32.703Z,11.64
2023-05-11T21:04:36.633Z,11.46
2023-05-11T21:07:46.700Z,11.39
2023-05-11T21:14:38.666Z,11.26
2023-05-11T21:18:05.596Z,11.22
2023-05-11T21:29:20.768Z,11.09
2023-05-11T21:36:13.723Z,11.06
2023-05-11T21:47:26.262Z,11.03
2023-05-11T21:49:58.350Z,10.96
2023-05-11T21:52:29.838Z,10.92
2023-05-11T21:55:01.030Z,10.89
2023-05-11T21:57:31.849Z,10.86
2023-05-11T22:00:00.033Z,10.83
2023-05-11T22:02:34.749Z,10.82
2023-05-11T22:05:06.639Z,10.79
2023-05-11T22:07:37.780Z,10.74
2023-05-11T22:10:12.719Z,10.69
2023-05-11T22:12:43.863Z,10.64
2023-05-11T22:15:14.890Z,10.60
2023-05-11T22:17:45.977Z,10.57
2023-05-11T22:20:18.130Z,10.55
2023-05-11T22:22:49.865Z,10.52
2023-05-11T22:25:20.699Z,10.48
2023-05-11T22:27:51.529Z,10.47
2023-05-11T22:30:22.721Z,10.42
2023-05-11T22:32:54.214Z,10.38
2023-05-11T22:35:24.399Z,10.36
2023-05-11T22:37:56.135Z,10.33
2023-05-11T22:40:28.712Z,10.26
2023-05-11T22:42:59.711Z,10.20
2023-05-11T22:45:28.920Z,10.21
2023-05-11T22:47:59.686Z,10.19
2023-05-11T22:50:30.486Z,10.17
2023-05-11T22:53:02.958Z,10.11
2023-05-11T22:55:34.066Z,10.06
2023-05-11T22:58:04.902Z,10.04
2023-05-11T23:00:35.372Z,9.98
2023-05-11T23:03:06.350Z,9.94
2023-05-11T23:05:37.442Z,9.91
2023-05-11T23:08:08.520Z,9.90
2023-05-11T23:10:39.314Z,9.90
2023-05-11T23:13:11.716Z,9.87
2023-05-11T23:15:43.750Z,9.84
2023-05-11T23:18:15.117Z,9.81
2023-05-11T23:20:46.360Z,9.77
2023-05-11T23:23:17.739Z,9.74
2023-05-11T23:25:49.944Z,9.70
2023-05-11T23:28:21.112Z,9.69
2023-05-11T23:30:52.263Z,9.65
2023-05-11T23:33:23.217Z,9.61
2023-05-11T23:35:56.570Z,9.60
2023-05-11T23:38:28.058Z,9.60
2023-05-11T23:40:59.378Z,9.61
2023-05-11T23:43:31.512Z,9.62
2023-05-11T23:46:02.660Z,9.62
2023-05-11T23:48:33.735Z,9.58
2023-05-11T23:51:04.898Z,9.57
2023-05-11T23:53:35.654Z,9.54
2023-05-11T23:56:07.206Z,9.52
2023-05-11T23:58:41.602Z,9.49
